createdAt,value
2018-08-20T00:01:18.387Z,13.27
2018-08-20T00:07:13.432Z,14.12
2018-08-20T00:13:08.445Z,13.82
2018-08-20T00:19:03.455Z,14.12
2018-08-20T00:24:58.459Z,14.37
2018-08-20T00:30:53.442Z,14.63
2018-08-20T00:36:48.486Z,15.46
2018-08-20T00:42:43.485Z,14.74
2018-08-20T00:48:38.461Z,15.08
2018-08-20T00:54:33.438Z,15.62
2018-08-20T01:00:28.494Z,14.63
2018-08-20T01:06:23.461Z,15.05
2018-08-20T01:12:18.477Z,16.45
2018-08-20T01:18:13.516Z,15.74
2018-08-20T01:24:08.473Z,15.34
2018-08-20T01:30:03.737Z,15.49
2018-08-20T01:35:58.522Z,15.08
2018-08-20T01:41:53.485Z,15.06
2018-08-20T01:47:48.462Z,15.93
2018-08-20T01:53:43.503Z,16.64
2018-08-20T01:59:38.481Z,15.75
2018-08-20T02:05:33.503Z,15.68
2018-08-20T02:11:28.565Z,15.84
2018-08-20T02:17:23.479Z,15.52
2018-08-20T02:23:18.533Z,16.22
2018-08-20T02:29:13.501Z,15.2
2018-08-20T02:35:08.570Z,15.78
2018-08-20T02:41:03.553Z,16.87
2018-08-20T02:46:58.569Z,15.94
2018-08-20T02:52:53.539Z,16.13
2018-08-20T02:58:48.521Z,15.96
2018-08-20T03:04:43.588Z,16.25
2018-08-20T03:10:38.579Z,17.17
2018-08-20T03:16:33.557Z,15.58
2018-08-20T03:22:28.563Z,15.94
2018-08-20T03:28:23.602Z,17.65
2018-08-20T03:34:18.592Z,16.19
2018-08-20T03:40:13.592Z,16
2018-08-20T03:46:08.652Z,16
2018-08-20T03:52:03.600Z,16
2018-08-20T03:57:58.725Z,16.12
2018-08-20T04:03:53.602Z,15.84
2018-08-20T04:09:48.640Z,16.64
2018-08-20T04:15:43.624Z,16.55
2018-08-20T04:21:38.646Z,16.01
2018-08-20T04:27:33.687Z,17.07
2018-08-20T04:33:28.634Z,16.64
2018-08-20T04:39:23.607Z,16.71
2018-08-20T04:45:18.665Z,16.19
2018-08-20T04:51:13.830Z,16.51
2018-08-20T04:57:08.620Z,17.28
2018-08-20T05:03:03.648Z,17.29
2018-08-20T05:08:58.688Z,16.87
2018-08-20T05:14:53.616Z,16.76
2018-08-20T05:20:48.702Z,16.42
2018-08-20T05:26:43.703Z,16.4
2018-08-20T05:32:38.647Z,16.35
2018-08-20T05:38:33.705Z,16.02
2018-08-20T05:44:28.692Z,16.23
2018-08-20T05:50:23.667Z,16.61
2018-08-20T05:56:18.747Z,16.5
2018-08-20T06:02:13.683Z,16.22
2018-08-20T06:08:08.733Z,15.16
2018-08-20T06:14:03.714Z,15.12
2018-08-20T06:19:58.708Z,16.81
2018-08-20T06:25:53.677Z,16.65
2018-08-20T06:31:48.696Z,16.66
2018-08-20T06:37:43.736Z,15.88
2018-08-20T06:43:38.694Z,15.04
2018-08-20T06:49:33.804Z,14.71
2018-08-20T06:55:28.750Z,15.1
2018-08-20T07:01:23.711Z,15.18
2018-08-20T07:07:18.766Z,14.94
2018-08-20T07:13:13.732Z,14.51
2018-08-20T07:19:08.814Z,14.43
2018-08-20T07:25:03.799Z,14.97
2018-08-20T07:30:58.751Z,13.78
2018-08-20T07:36:53.766Z,13.37
2018-08-20T07:42:48.758Z,14.66
2018-08-20T07:48:43.776Z,13.78
2018-08-20T07:54:38.773Z,13.37
2018-08-20T08:00:33.771Z,12.88
2018-08-20T08:06:28.768Z,12.7
2018-08-20T08:12:23.803Z,12.61
2018-08-20T08:18:18.828Z,11.27
2018-08-20T08:24:13.809Z,12.03
2018-08-20T08:30:08.920Z,10.94
2018-08-20T08:36:03.857Z,10.94
2018-08-20T08:41:58.831Z,11.54
2018-08-20T08:47:53.837Z,10.64
2018-08-20T08:53:48.821Z,9.9
2018-08-20T08:59:43.921Z,9.49
2018-08-20T09:05:38.830Z,8.55
2018-08-20T09:11:33.834Z,8.27
2018-08-20T09:17:28.860Z,8.13
2018-08-20T09:23:23.845Z,8.4
2018-08-20T09:29:18.866Z,7.73
2018-08-20T09:35:13.879Z,8.06
2018-08-20T09:41:08.835Z,7.85
2018-08-20T09:47:03.907Z,7.56
2018-08-20T09:52:58.901Z,6.93
2018-08-20T09:58:53.902Z,6.53
2018-08-20T10:04:48.902Z,7.38
2018-08-20T10:10:43.964Z,6.29
2018-08-20T10:16:38.921Z,5.89
2018-08-20T10:22:33.923Z,5.8
2018-08-20T10:28:28.917Z,5.66
2018-08-20T10:34:24.553Z,5.82
2018-08-20T10:40:18.935Z,5.9
2018-08-20T10:46:13.923Z,5.66
2018-08-20T10:52:08.910Z,5.73
2018-08-20T10:58:03.948Z,6.28
2018-08-20T11:03:58.948Z,5.75
2018-08-20T11:09:53.969Z,5.62
2018-08-20T11:15:48.972Z,5.49
2018-08-20T11:21:43.962Z,4.87
2018-08-20T11:27:39.016Z,5.15
2018-08-20T11:33:33.988Z,5.21
2018-08-20T11:39:28.959Z,4.9
2018-08-20T11:45:23.967Z,4.25
2018-08-20T11:51:18.975Z,4.02
2018-08-20T11:57:13.994Z,4.44
2018-08-20T12:03:08.992Z,4.09
2018-08-20T12:09:04.006Z,4.09
2018-08-20T12:14:59.042Z,3.96
2018-08-20T12:20:54.011Z,3.71
2018-08-20T12:26:49.088Z,3.71
2018-08-20T12:32:44.051Z,3.59
2018-08-20T12:38:39.023Z,3.89
2018-08-20T12:44:34.099Z,3.54
2018-08-20T12:50:29.067Z,3.8
2018-08-20T12:56:24.032Z,3.79
2018-08-20T13:02:19.063Z,3.85
2018-08-20T13:08:14.076Z,3.72
2018-08-20T13:14:09.109Z,3.51
2018-08-20T13:20:04.105Z,3.37
2018-08-20T13:25:59.060Z,3.65
2018-08-20T13:31:54.094Z,3.74
2018-08-20T13:37:49.061Z,4.2
2018-08-20T13:43:44.133Z,3.94
2018-08-20T13:49:39.090Z,3.91
2018-08-20T13:55:34.154Z,4.2
2018-08-20T14:01:29.104Z,3.63
2018-08-20T14:07:24.106Z,3.86
2018-08-20T14:13:19.176Z,4.23
2018-08-20T14:19:14.133Z,3.66
2018-08-20T14:25:09.212Z,4.1
2018-08-20T14:31:04.133Z,3.97
2018-08-20T14:36:59.200Z,4.27
2018-08-20T14:42:54.136Z,4.62
2018-08-20T14:48:49.130Z,4.52
2018-08-20T14:54:44.197Z,4.46
2018-08-20T15:00:39.155Z,4.49
2018-08-20T15:06:34.186Z,4.63
2018-08-20T15:12:29.180Z,4.54
2018-08-20T15:18:24.239Z,4.14
2018-08-20T15:24:19.274Z,4.31
2018-08-20T15:30:14.169Z,4.61
2018-08-20T15:36:09.186Z,4.36
2018-08-20T15:42:04.218Z,3.97
2018-08-20T15:47:59.199Z,4.14
2018-08-20T15:53:54.211Z,4.43
2018-08-20T15:59:49.246Z,4.16
2018-08-20T16:05:44.253Z,4.6
2018-08-20T16:11:39.272Z,4.92
2018-08-20T16:17:34.212Z,4.59
2018-08-20T16:23:29.271Z,5.1
2018-08-20T16:29:24.241Z,5
2018-08-20T16:35:19.284Z,5.05
2018-08-20T16:41:14.255Z,4.72
2018-08-20T16:47:09.300Z,5.42
2018-08-20T16:53:04.277Z,5.49
2018-08-20T16:58:59.290Z,5.02
2018-08-20T17:04:54.282Z,5
2018-08-20T17:10:49.274Z,5.2
2018-08-20T17:16:44.306Z,5.44
2018-08-20T17:22:39.273Z,5.31
2018-08-20T17:28:34.331Z,6.48
2018-08-20T17:34:29.288Z,5.27
2018-08-20T17:40:24.321Z,5.58
2018-08-20T17:46:19.311Z,5.59
2018-08-20T17:52:14.325Z,5.88
2018-08-20T17:58:09.367Z,5.75
2018-08-20T18:04:04.344Z,5.66
2018-08-20T18:09:59.341Z,5.66
2018-08-20T18:15:54.343Z,5.99
2018-08-20T18:21:49.392Z,6.83
2018-08-20T18:27:44.390Z,6.06
2018-08-20T18:33:39.372Z,6.29
2018-08-20T18:39:34.375Z,6.16
2018-08-20T18:45:29.364Z,6.61
2018-08-20T18:51:24.353Z,6.6
2018-08-20T18:57:19.406Z,7.18
2018-08-20T19:03:14.360Z,6.75
2018-08-20T19:09:09.404Z,6.77
2018-08-20T19:15:04.467Z,6.61
2018-08-20T19:20:59.421Z,6.37
2018-08-20T19:26:54.420Z,6.37
2018-08-20T19:32:49.414Z,6.33
2018-08-20T19:38:44.389Z,6.52
2018-08-20T19:44:39.455Z,6.99
2018-08-20T19:50:34.439Z,6.76
2018-08-20T19:56:29.418Z,6.96
2018-08-20T20:02:24.457Z,7.51
2018-08-20T20:08:19.455Z,7.47
2018-08-20T20:14:14.464Z,7.4
2018-08-20T20:20:09.448Z,7.5
2018-08-20T20:26:04.452Z,7.42
2018-08-20T20:31:59.489Z,7.26
2018-08-20T20:37:54.519Z,8.25
2018-08-20T20:43:49.463Z,7.52
2018-08-20T20:49:44.491Z,7.33
2018-08-20T20:55:39.501Z,7.21
2018-08-20T21:01:34.492Z,7.12
2018-08-20T21:07:29.487Z,7.67
2018-08-20T21:13:24.535Z,7.7
2018-08-20T21:19:19.503Z,7.65
2018-08-20T21:25:14.609Z,8.26
2018-08-20T21:31:09.567Z,8.1
2018-08-20T21:37:04.604Z,7
2018-08-20T21:42:59.604Z,7.74
2018-08-20T21:48:54.587Z,7.79
2018-08-20T21:54:49.544Z,7.89
2018-08-20T22:00:44.553Z,8.15
2018-08-20T22:06:39.584Z,7.76
2018-08-20T22:12:34.543Z,8.13
2018-08-20T22:18:29.538Z,8.74
2018-08-20T22:24:24.554Z,8.87
2018-08-20T22:30:19.554Z,8.78
2018-08-20T22:36:14.563Z,8.52
2018-08-20T22:42:09.613Z,8.61
2018-08-20T22:48:04.594Z,9
2018-08-20T22:53:59.590Z,8.63
2018-08-20T22:59:54.640Z,8.89
2018-08-20T23:05:49.575Z,8.84
2018-08-20T23:11:44.588Z,9.08
2018-08-20T23:17:39.639Z,8.47
2018-08-20T23:23:34.648Z,9.09
2018-08-20T23:29:29.604Z,9.05
2018-08-20T23:35:24.616Z,9.1
2018-08-20T23:41:19.639Z,9.2
2018-08-20T23:47:14.691Z,9.56
2018-08-20T23:53:09.674Z,9.24
2018-08-20T23:59:04.620Z,9.71
